Flight Track Log - Related Links

Times and Time Zones

All times are in EDT time to prevent confusion due to time zone crossing. See the TYR718 flight status page for this flight to view local times or setup timezone preferences in your user account.

Time Position Orientation Groundspeed Altitude Reporting Facility
EDT Latitude Longitude Course Direction KTS MPH feet Rate Location/Type
Tue 01:05:00 AM 47.5862 18.6870 291° West  Level Estimated
Tue 01:06:00 AM 47.6108 18.5919 291° West  Level Estimated
Tue 01:07:00 AM 47.6353 18.4967 291° West  Level Estimated
Tue 01:08:00 AM 47.6598 18.4015 291° West  Level Estimated
Tue 01:09:00 AM 47.6841 18.3061 291° West  Level Estimated
Tue 01:10:00 AM 47.7084 18.2107 291° West  Level Estimated
Tue 01:11:00 AM 47.7326 18.1152 291° West  Level Estimated
Tue 01:12:00 AM 47.7568 18.0196 291° West  Level Estimated
Tue 01:13:00 AM 47.7808 17.9238 291° West  Level Estimated
Tue 01:14:00 AM 47.8048 17.8281 290° West  Level Estimated
Tue 01:15:00 AM 47.8287 17.7322 290° West  Level Estimated
Tue 01:16:00 AM 47.8525 17.6362 290° West  Level Estimated
Tue 01:17:00 AM 47.8762 17.5401 290° West  Level Estimated
Tue 01:18:00 AM 47.8999 17.4440 290° West  Level Estimated
Tue 01:19:00 AM 47.9234 17.3478 290° West  Level Estimated
Tue 01:20:00 AM 47.9469 17.2514 290° West  Level Estimated
Tue 01:21:00 AM 47.9703 17.1550 290° West  Level Estimated
Tue 01:22:00 AM 47.9937 17.0585 290° West  Level Estimated
Tue 01:23:00 AM 48.0169 16.9620 290° West  Level Estimated
Tue 01:24:00 AM 48.0401 16.8653 290° West  Level Estimated
Tue 01:25:00 AM 48.0632 16.7685 290° West  Level Estimated
Tue 01:26:00 AM 48.0862 16.6717 290° West  Level Estimated
Tue 01:27:00 AM 48.1091 16.5748 290° West  Level Estimated
Tue 01:28:00 AM 48.1103 16.5697 289° West  Level Estimated
Tue 01:29:00 AM 48.1103 16.5697 North  Level Estimated
Tue 01:30:00 AM 48.1103 16.5697 North  Level Estimated
Tue 01:31:00 AM 48.1103 16.5697 North  Level Estimated
Tue 01:32:00 AM 48.1103 16.5697 North  Level Estimated
Tue 01:33:00 AM 48.1103 16.5697 North  Level Estimated
Tue 01:34:00 AM 48.1103 16.5697 North  Level Estimated
Tue 01:35:00 AM 48.1103 16.5697 North  Level Estimated

Login

Don't have an account? Register now (free) for customized features, flight alerts, and more!